Time;durP1;ratioP1;P1;durP2;ratioP2;P2;SDS_P1;SDS_P2;PMS_P1;PMS_P2;Temp;Humidity;BMP_temperature;BMP_pressure;BME280_temperature;BME280_humidity;BME280_pressure;Samples;Min_cycle;Max_cycle;Signal;HPM_P1;HPM_P2
2020/12/11 00:00:48;;;;;;;14.97;10.87;;;;;;;;;;5004974;28;20447;-85
2020/12/11 00:03:15;;;;;;;20.83;12.87;;;1.20;99.90;;;;;;5003551;28;20450;-84
2020/12/11 00:05:41;;;;;;;19.60;12.83;;;;;;;;;;5002330;28;20460;-85
2020/12/11 00:08:14;;;;;;;14.83;9.97;;;1.20;99.90;;;;;;5002177;28;20453;-84
2020/12/11 00:10:40;;;;;;;16.73;11.50;;;1.20;99.90;;;;;;5003043;28;20493;-83
2020/12/11 00:13:07;;;;;;;16.53;11.20;;;;;;;;;;5003977;28;20429;-85
2020/12/11 00:15:33;;;;;;;16.60;12.37;;;;;;;;;;5002187;28;20449;-86
2020/12/11 00:18:00;;;;;;;19.10;11.50;;;;;;;;;;4996051;28;20443;-86
2020/12/11 00:20:26;;;;;;;20.00;11.77;;;1.40;99.90;;;;;;5002407;28;20451;-84
2020/12/11 00:22:53;;;;;;;15.33;11.27;;;;;;;;;;4998200;28;20967;-84
2020/12/11 00:25:20;;;;;;;16.30;9.60;;;0.70;99.90;;;;;;5002619;28;20804;-84
2020/12/11 00:27:48;;;;;;;15.97;11.33;;;1.30;99.90;;;;;;5004464;28;20450;-86
2020/12/11 00:30:14;;;;;;;13.97;10.20;;;1.10;99.90;;;;;;4999160;28;20515;-84
2020/12/11 00:32:44;;;;;;;16.07;10.43;;;1.20;99.90;;;;;;5002398;28;20825;-86
2020/12/11 00:35:12;;;;;;;13.17;9.60;;;1.10;99.90;;;;;;5002528;28;20470;-85
2020/12/11 00:37:38;;;;;;;14.03;10.47;;;;;;;;;;5002223;28;20453;-85
2020/12/11 00:40:06;;;;;;;13.57;10.50;;;;;;;;;;5001811;28;20444;-85
2020/12/11 00:42:34;;;;;;;16.77;10.97;;;1.20;99.90;;;;;;5003051;28;20877;-85
2020/12/11 00:45:01;;;;;;;14.37;9.57;;;;;;;;;;5002446;28;20444;-85
2020/12/11 00:47:28;;;;;;;11.10;8.00;;;;;;;;;;5001251;28;20444;-85
2020/12/11 00:49:55;;;;;;;12.73;9.40;;;;;;;;;;5002758;28;20498;-85
2020/12/11 00:52:21;;;;;;;14.70;9.43;;;1.00;99.90;;;;;;4984485;28;571860;-84
2020/12/11 00:54:48;;;;;;;12.70;9.30;;;1.20;99.90;;;;;;5002106;28;20204;-84
2020/12/11 00:57:14;;;;;;;16.07;10.03;;;1.30;99.90;;;;;;5003620;28;20447;-86
2020/12/11 00:59:41;;;;;;;14.23;10.87;;;1.20;99.90;;;;;;5003298;28;20452;-84
2020/12/11 01:02:08;;;;;;;9.40;7.70;;;;;;;;;;5002211;28;20455;-83
2020/12/11 01:04:34;;;;;;;15.37;11.10;;;;;;;;;;5013318;28;20465;-84
2020/12/11 01:07:00;;;;;;;10.00;8.20;;;1.20;99.90;;;;;;5012185;28;20967;-85
2020/12/11 01:09:27;;;;;;;12.57;7.87;;;1.10;99.90;;;;;;5013251;28;20500;-84
2020/12/11 01:11:53;;;;;;;12.13;8.33;;;1.30;99.90;;;;;;5013434;28;20443;-85
2020/12/11 01:14:19;;;;;;;13.30;9.57;;;;;;;;;;5013318;28;20456;-85
2020/12/11 01:16:47;;;;;;;10.20;8.77;;;1.00;99.90;;;;;;5013378;28;20828;-84
2020/12/11 01:19:13;;;;;;;13.30;9.43;;;1.10;99.90;;;;;;5013418;28;20450;-85
2020/12/11 01:21:40;;;;;;;15.10;9.43;;;1.00;99.90;;;;;;5012110;28;20441;-84
2020/12/11 01:24:06;;;;;;;15.13;10.27;;;;;;;;;;5012828;28;20456;-84
2020/12/11 01:26:32;;;;;;;14.40;10.20;;;1.20;99.90;;;;;;5013163;28;20458;-85
2020/12/11 01:28:59;;;;;;;15.53;10.40;;;;;;;;;;5013217;28;20492;-84
2020/12/11 01:31:25;;;;;;;14.30;9.93;;;0.90;99.90;;;;;;5013273;28;20446;-85
2020/12/11 01:33:52;;;;;;;13.97;9.97;;;1.20;99.90;;;;;;5013648;28;20451;-85
2020/12/11 01:36:25;;;;;;;11.90;9.17;;;0.80;99.90;;;;;;5013821;28;20456;-84
2020/12/11 01:38:51;;;;;;;16.30;9.63;;;0.80;99.90;;;;;;5013617;28;20444;-85
2020/12/11 01:41:18;;;;;;;11.37;8.80;;;;;;;;;;5010890;28;20471;-85
2020/12/11 01:43:45;;;;;;;10.50;8.43;;;;;;;;;;5013134;28;20521;-84
2020/12/11 01:46:15;;;;;;;13.87;9.83;;;1.00;99.90;;;;;;5013434;28;20443;-86
2020/12/11 01:48:42;;;;;;;11.43;9.57;;;0.60;99.90;;;;;;5012935;28;20491;-85
2020/12/11 01:51:09;;;;;;;14.87;10.20;;;0.80;99.90;;;;;;5011956;28;20448;-85
2020/12/11 01:53:36;;;;;;;12.80;9.10;;;0.70;99.90;;;;;;5013003;28;20479;-84
2020/12/11 01:56:06;;;;;;;13.30;9.83;;;1.10;99.90;;;;;;5010703;28;20466;-84
2020/12/11 01:58:38;;;;;;;11.23;8.03;;;0.70;99.90;;;;;;5012914;28;20448;-84
2020/12/11 02:01:05;;;;;;;14.00;11.00;;;0.80;99.90;;;;;;5013052;28;20470;-84
2020/12/11 02:03:33;;;;;;;12.23;7.10;;;0.80;99.90;;;;;;5013287;28;20980;-84
2020/12/11 02:05:59;;;;;;;16.43;9.80;;;;;;;;;;5011570;28;20978;-86
2020/12/11 02:08:27;;;;;;;9.23;7.50;;;0.80;99.90;;;;;;5013113;28;20827;-84
2020/12/11 02:10:53;;;;;;;12.93;9.30;;;0.70;99.90;;;;;;5016877;28;20457;-84
2020/12/11 02:13:19;;;;;;;14.17;10.30;;;0.60;99.90;;;;;;5016676;28;20466;-84
2020/12/11 02:15:45;;;;;;;14.27;10.13;;;0.60;99.90;;;;;;5016480;28;20449;-84
2020/12/11 02:18:12;;;;;;;11.37;8.00;;;0.70;99.90;;;;;;5016543;28;20814;-84
2020/12/11 02:20:38;;;;;;;12.17;8.90;;;0.50;99.90;;;;;;5015124;28;20463;-85
2020/12/11 02:23:05;;;;;;;15.63;11.10;;;0.50;99.90;;;;;;5016415;28;20457;-84
2020/12/11 02:25:31;;;;;;;14.40;10.70;;;;;;;;;;5016270;28;20445;-85
2020/12/11 02:27:58;;;;;;;14.53;10.40;;;0.70;99.90;;;;;;5016352;28;20637;-85
2020/12/11 02:30:24;;;;;;;13.20;10.73;;;;;;;;;;5016157;28;20501;-86
2020/12/11 02:32:50;;;;;;;18.30;11.90;;;0.50;99.90;;;;;;5016124;28;20462;-85
2020/12/11 02:35:17;;;;;;;16.80;10.83;;;;;;;;;;5014718;28;20453;-85
2020/12/11 02:37:43;;;;;;;14.00;10.83;;;0.70;99.90;;;;;;5016249;28;20804;-85
2020/12/11 02:40:10;;;;;;;17.90;11.93;;;-0.70;99.90;;;;;;5016032;28;20447;-84
2020/12/11 02:42:37;;;;;;;14.83;10.60;;;;;;;;;;5016051;28;20448;-85
2020/12/11 02:45:04;;;;;;;16.70;11.70;;;0.70;99.90;;;;;;5016030;28;20468;-85
2020/12/11 02:47:33;;;;;;;17.30;11.37;;;;;;;;;;5016157;28;20540;-88
2020/12/11 02:50:00;;;;;;;17.20;10.80;;;0.50;99.90;;;;;;5015384;28;20544;-84
2020/12/11 02:52:27;;;;;;;16.23;11.50;;;;;;;;;;5015291;28;21008;-87
2020/12/11 02:54:53;;;;;;;16.40;11.73;;;;;;;;;;5015977;28;20454;-86
2020/12/11 02:57:20;;;;;;;17.40;10.63;;;0.60;99.90;;;;;;5015980;28;20445;-86
2020/12/11 02:59:47;;;;;;;17.13;12.03;;;;;;;;;;5015648;28;20450;-85
2020/12/11 03:02:13;;;;;;;18.10;12.20;;;0.50;99.90;;;;;;5015649;28;20480;-85
2020/12/11 03:04:40;;;;;;;12.83;10.50;;;0.40;99.90;;;;;;5015572;28;20446;-85
2020/12/11 03:07:07;;;;;;;14.83;10.83;;;;;;;;;;5014315;28;20938;-87
2020/12/11 03:09:33;;;;;;;20.10;12.60;;;0.90;99.90;;;;;;5015440;28;20854;-85
2020/12/11 03:11:59;;;;;;;18.83;12.47;;;0.30;99.90;;;;;;5012546;28;20502;-85
2020/12/11 03:14:27;;;;;;;14.17;11.00;;;0.30;99.90;;;;;;5015337;28;20461;-85
2020/12/11 03:16:53;;;;;;;15.30;10.17;;;0.30;99.90;;;;;;5015598;28;20452;-85
2020/12/11 03:19:20;;;;;;;15.87;11.23;;;0.10;99.90;;;;;;5015311;28;20462;-85
2020/12/11 03:21:46;;;;;;;18.13;11.87;;;0.10;99.90;;;;;;5014067;28;20458;-86
2020/12/11 03:24:12;;;;;;;18.77;11.70;;;0.10;99.90;;;;;;5015352;28;20465;-85
2020/12/11 03:26:39;;;;;;;17.77;11.63;;;;;;;;;;5015142;28;20445;-85
2020/12/11 03:29:05;;;;;;;16.53;11.50;;;0.20;99.90;;;;;;5015161;28;20493;-85
2020/12/11 03:31:32;;;;;;;21.03;11.90;;;0.10;99.90;;;;;;5015846;28;20456;-84
2020/12/11 03:33:59;;;;;;;21.17;13.93;;;;;;;;;;5017045;28;20539;-85
2020/12/11 03:36:25;;;;;;;19.83;12.27;;;;;;;;;;5014242;28;20455;-85
2020/12/11 03:38:52;;;;;;;15.10;9.20;;;;;;;;;;5014957;28;20466;-84
2020/12/11 03:41:19;;;;;;;21.47;14.40;;;;;;;;;;5015028;28;20940;-85
2020/12/11 03:43:45;;;;;;;20.47;12.33;;;-0.20;99.90;;;;;;5014959;28;20450;-85
2020/12/11 03:46:18;;;;;;;14.80;8.33;;;0.00;99.90;;;;;;5014376;28;20453;-85
2020/12/11 03:48:52;;;;;;;21.33;12.60;;;0.10;99.90;;;;;;5004442;28;20438;-86
2020/12/11 03:51:25;;;;;;;19.00;12.20;;;0.00;99.90;;;;;;5005304;28;20455;-85
2020/12/11 03:53:58;;;;;;;18.30;12.13;;;-0.90;99.90;;;;;;5004028;28;20447;-85
2020/12/11 03:56:29;;;;;;;15.73;9.27;;;-0.10;99.90;;;;;;5004535;28;20476;-85
2020/12/11 03:58:56;;;;;;;15.83;10.80;;;;;;;;;;5003120;28;20465;-84
2020/12/11 04:01:23;;;;;;;21.47;12.73;;;-0.40;99.90;;;;;;5004639;28;20442;-86
2020/12/11 04:03:50;;;;;;;22.37;13.57;;;0.00;99.90;;;;;;5004719;28;20471;-85
2020/12/11 04:06:17;;;;;;;20.37;12.17;;;-0.20;99.90;;;;;;5001979;28;20564;-87
2020/12/11 04:08:44;;;;;;;22.90;13.63;;;-0.10;99.90;;;;;;5004191;28;20459;-86
2020/12/11 04:11:12;;;;;;;19.50;12.23;;;-0.20;99.90;;;;;;5004722;28;20447;-87
2020/12/11 04:13:39;;;;;;;19.03;11.50;;;;;;;;;;5000604;28;20949;-88
2020/12/11 04:16:06;;;;;;;19.77;13.57;;;-0.10;99.90;;;;;;5003981;28;20438;-87
2020/12/11 04:18:32;;;;;;;24.40;14.30;;;-0.20;99.90;;;;;;5005132;28;20449;-85
2020/12/11 04:20:59;;;;;;;12.67;7.20;;;-0.10;99.90;;;;;;4999089;28;20446;-85
2020/12/11 04:23:27;;;;;;;19.00;12.20;;;-0.20;99.90;;;;;;5003750;28;20468;-88
2020/12/11 04:25:54;;;;;;;24.10;14.50;;;-0.30;99.90;;;;;;5004743;28;20452;-86
2020/12/11 04:28:21;;;;;;;6.10;4.23;;;-0.30;99.90;;;;;;5003181;28;20448;-85
2020/12/11 04:30:48;;;;;;;22.03;13.73;;;;;;;;;;5003418;28;20496;-84
2020/12/11 04:33:14;;;;;;;18.80;10.20;;;-0.50;99.90;;;;;;5004315;28;20462;-85
2020/12/11 04:35:40;;;;;;;22.40;13.77;;;-0.10;99.90;;;;;;5001752;28;20455;-85
2020/12/11 04:38:07;;;;;;;21.50;12.97;;;-0.30;99.90;;;;;;5003494;28;20445;-85
2020/12/11 04:40:33;;;;;;;25.70;14.20;;;-0.40;99.90;;;;;;4996696;28;20449;-85
2020/12/11 04:43:00;;;;;;;22.83;13.60;;;-0.60;99.90;;;;;;4994187;28;20442;-85
2020/12/11 04:45:27;;;;;;;20.87;13.30;;;-1.00;99.90;;;;;;4994133;28;20450;-85
2020/12/11 04:47:55;;;;;;;23.17;13.87;;;-0.40;99.90;;;;;;4994040;28;20948;-85
2020/12/11 04:50:21;;;;;;;22.03;12.80;;;-0.40;99.90;;;;;;4992746;28;20496;-88
2020/12/11 04:52:49;;;;;;;26.40;15.30;;;-0.50;99.90;;;;;;4993867;28;21004;-84
2020/12/11 04:55:17;;;;;;;23.20;14.07;;;-0.40;99.90;;;;;;4994077;28;20455;-85
2020/12/11 04:57:45;;;;;;;21.70;12.90;;;-0.60;99.90;;;;;;4995265;28;20460;-85
2020/12/11 05:00:12;;;;;;;26.70;13.67;;;-0.40;99.90;;;;;;4994081;28;20457;-85
2020/12/11 05:02:41;;;;;;;8.90;6.17;;;-0.50;99.90;;;;;;4997219;28;20857;-85
2020/12/11 05:05:08;;;;;;;24.63;13.47;;;-0.50;99.90;;;;;;4992937;28;20503;-87
2020/12/11 05:07:34;;;;;;;20.67;13.30;;;-0.50;99.90;;;;;;4993921;28;20451;-84
2020/12/11 05:10:01;;;;;;;15.13;9.57;;;-0.60;99.90;;;;;;4993617;28;21028;-85
2020/12/11 05:12:28;;;;;;;25.40;13.83;;;-0.60;99.90;;;;;;4993866;28;20445;-86
2020/12/11 05:14:58;;;;;;;18.60;9.47;;;-0.70;99.90;;;;;;4993789;28;20453;-85
2020/12/11 05:17:29;;;;;;;26.97;14.73;;;-0.80;99.90;;;;;;4993720;28;20457;-85
2020/12/11 05:19:57;;;;;;;13.77;7.57;;;-0.60;99.90;;;;;;4993673;28;20456;-86
2020/12/11 05:22:28;;;;;;;16.00;9.73;;;-0.60;99.90;;;;;;4992468;28;20794;-85
2020/12/11 05:24:56;;;;;;;15.93;9.03;;;-0.50;99.90;;;;;;4993481;28;20930;-85
2020/12/11 05:27:34;;;;;;;11.63;7.10;;;-0.50;99.90;;;;;;4993771;28;20468;-85
2020/12/11 05:30:21;;;;;;;23.20;13.60;;;-0.50;99.90;;;;;;4993506;28;20492;-85
2020/12/11 05:32:50;;;;;;;22.60;12.40;;;-0.60;99.90;;;;;;4993708;28;20465;-85
2020/12/11 05:35:28;;;;;;;23.20;13.30;;;-0.60;99.90;;;;;;4992356;28;20507;-85
2020/12/11 05:37:57;;;;;;;21.93;13.30;;;-0.60;99.90;;;;;;4993463;28;20452;-85
2020/12/11 05:40:27;;;;;;;21.13;12.10;;;-0.70;99.90;;;;;;4991547;28;20453;-85
2020/12/11 05:43:06;;;;;;;24.07;13.33;;;-0.70;99.90;;;;;;4993530;28;20802;-85
2020/12/11 05:45:34;;;;;;;22.67;14.03;;;-0.70;99.90;;;;;;4997179;28;20437;-87
2020/12/11 05:48:01;;;;;;;25.40;15.40;;;-1.20;99.90;;;;;;4997369;28;20441;-85
2020/12/11 05:50:28;;;;;;;17.60;6.70;;;-0.70;99.90;;;;;;4996159;28;20831;-84
2020/12/11 05:52:55;;;;;;;90.77;47.93;;;-0.70;99.90;;;;;;4997253;28;20984;-85
2020/12/11 05:55:23;;;;;;;18.80;10.80;;;-0.20;99.90;;;;;;4997495;28;20456;-86
2020/12/11 05:57:52;;;;;;;16.27;10.43;;;-0.80;99.90;;;;;;4998192;28;20453;-84
2020/12/11 06:00:19;;;;;;;19.47;12.40;;;-0.80;99.90;;;;;;4997321;28;20532;-87
2020/12/11 06:02:47;;;;;;;99.37;49.80;;;-0.80;99.90;;;;;;4996726;28;20466;-86
2020/12/11 06:05:16;;;;;;;11.03;6.60;;;-0.80;99.90;;;;;;4996080;28;20445;-85
2020/12/11 06:07:44;;;;;;;16.80;9.03;;;-0.80;99.90;;;;;;4995039;28;20446;-86
2020/12/11 06:10:12;;;;;;;20.67;12.93;;;-0.80;99.90;;;;;;4999798;28;20500;-86
2020/12/11 06:12:39;;;;;;;16.63;10.87;;;-0.80;99.90;;;;;;4998979;28;20941;-85
2020/12/11 06:15:15;;;;;;;19.63;9.97;;;-0.90;99.90;;;;;;4996973;28;20604;-85
2020/12/11 06:17:48;;;;;;;27.03;15.70;;;-0.90;99.90;;;;;;4997020;28;20519;-85
2020/12/11 06:20:15;;;;;;;28.10;15.63;;;-0.90;99.90;;;;;;4995878;28;20571;-86
2020/12/11 06:22:44;;;;;;;26.77;16.00;;;-0.90;99.90;;;;;;4997186;28;20460;-86
2020/12/11 06:25:30;;;;;;;29.73;17.67;;;-0.90;99.90;;;;;;4996874;28;20460;-85
2020/12/11 06:27:58;;;;;;;22.27;12.10;;;-0.90;99.90;;;;;;4996800;28;20452;-85
2020/12/11 06:30:29;;;;;;;23.73;13.07;;;-0.80;99.90;;;;;;5000112;28;20503;-86
2020/12/11 06:32:57;;;;;;;26.30;16.97;;;-0.80;99.90;;;;;;4995245;28;20450;-86
2020/12/11 06:35:24;;;;;;;22.07;13.53;;;-0.80;99.90;;;;;;4995459;28;20956;-85
2020/12/11 06:37:50;;;;;;;27.73;17.87;;;-0.80;99.90;;;;;;4995196;28;20457;-86
2020/12/11 06:40:17;;;;;;;28.60;17.50;;;-0.80;99.90;;;;;;4995200;28;20453;-88
2020/12/11 06:42:45;;;;;;;22.20;13.80;;;-0.70;99.90;;;;;;4994992;28;20445;-86
2020/12/11 06:45:20;;;;;;;25.10;15.30;;;-0.70;99.90;;;;;;4997579;28;20461;-87
2020/12/11 06:47:51;;;;;;;23.87;13.67;;;-0.70;99.90;;;;;;4996408;28;20453;-87
2020/12/11 06:50:19;;;;;;;32.93;16.73;;;-0.70;99.90;;;;;;4998450;28;21012;-86
2020/12/11 06:52:46;;;;;;;34.63;18.50;;;-0.80;99.90;;;;;;5016877;28;20488;-87
2020/12/11 06:55:13;;;;;;;73.70;38.57;;;-0.80;99.90;;;;;;5015335;28;20437;-88
2020/12/11 06:57:44;;;;;;;42.03;26.20;;;-0.70;99.90;;;;;;5015916;28;20446;-86
2020/12/11 07:00:41;;;;;;;24.43;15.13;;;-0.70;99.90;;;;;;5009675;28;20446;-90
2020/12/11 07:03:29;;;;;;;25.23;13.83;;;-0.70;99.90;;;;;;5002317;28;20441;-87
2020/12/11 07:06:10;;;;;;;26.00;17.83;;;-0.70;99.90;;;;;;5003819;28;20441;-88
2020/12/11 07:08:37;;;;;;;21.03;12.40;;;-0.70;99.90;;;;;;5013550;28;20449;-86
2020/12/11 07:11:05;;;;;;;14.77;8.43;;;-0.70;99.90;;;;;;5015724;28;20499;-87
2020/12/11 07:13:32;;;;;;;28.57;16.57;;;-0.70;99.90;;;;;;5015310;28;20447;-89
2020/12/11 07:16:00;;;;;;;37.57;24.37;;;-0.70;99.90;;;;;;5015591;28;20445;-87
2020/12/11 07:18:26;;;;;;;84.17;50.57;;;-0.60;99.90;;;;;;5015554;28;20452;-88
2020/12/11 07:20:55;;;;;;;11.77;7.80;;;-0.60;99.90;;;;;;5014313;28;20448;-88
2020/12/11 07:23:23;;;;;;;25.20;16.87;;;-0.70;99.90;;;;;;5015026;28;20511;-89
2020/12/11 07:25:51;;;;;;;80.93;47.53;;;-0.70;99.90;;;;;;5015189;28;20972;-88
2020/12/11 07:28:17;;;;;;;28.00;16.63;;;-0.60;99.90;;;;;;5015391;28;20448;-86
2020/12/11 07:30:44;;;;;;;21.73;13.80;;;-0.60;99.90;;;;;;5015264;28;20495;-88
2020/12/11 07:33:11;;;;;;;26.53;16.67;;;-0.60;99.90;;;;;;5006366;28;20442;-87
2020/12/11 07:35:43;;;;;;;17.70;10.80;;;-0.50;99.90;;;;;;5002426;28;20505;-88
2020/12/11 07:38:09;;;;;;;24.20;13.53;;;-0.60;99.90;;;;;;5004216;28;20941;-89
2020/12/11 07:40:36;;;;;;;34.00;19.30;;;-0.60;99.90;;;;;;5001550;28;20448;-86
2020/12/11 07:43:03;;;;;;;62.07;29.73;;;-0.70;99.90;;;;;;5005653;28;20454;-86
2020/12/11 07:45:31;;;;;;;40.83;22.13;;;-0.60;99.90;;;;;;5003583;28;20450;-87
2020/12/11 07:47:58;;;;;;;30.57;16.50;;;-0.60;99.90;;;;;;5006106;28;20804;-88
2020/12/11 07:50:27;;;;;;;22.93;13.40;;;-0.50;99.90;;;;;;5002032;28;20638;-87
2020/12/11 07:52:55;;;;;;;121.33;50.30;;;-0.50;99.90;;;;;;5005609;28;20477;-88
2020/12/11 07:55:23;;;;;;;112.90;44.93;;;-0.50;99.90;;;;;;5001102;28;20441;-91
2020/12/11 07:57:54;;;;;;;77.23;34.53;;;-0.50;99.90;;;;;;5007648;28;20442;-85
2020/12/11 08:00:21;;;;;;;75.17;31.67;;;-0.40;99.90;;;;;;5017381;28;20459;-88
2020/12/11 08:03:04;;;;;;;273.93;102.87;;;-0.40;99.90;;;;;;5015330;28;20449;-87
2020/12/11 08:05:31;;;;;;;34.57;19.40;;;;;;;;;;5013998;28;20531;-88
2020/12/11 08:07:58;;;;;;;68.83;30.37;;;-0.40;99.90;;;;;;5016671;28;20507;-89
2020/12/11 08:10:32;;;;;;;158.83;65.07;;;0.00;99.90;;;;;;5015675;28;20496;-89
2020/12/11 08:13:08;;;;;;;56.37;27.53;;;-0.10;99.90;;;;;;5015398;28;20449;-87
2020/12/11 08:15:37;;;;;;;126.63;60.33;;;-0.10;99.90;;;;;;5010242;28;20780;-89
2020/12/11 08:18:08;;;;;;;27.80;14.90;;;-0.10;99.90;;;;;;5006561;28;20446;-86
2020/12/11 08:20:49;;;;;;;20.60;12.90;;;0.00;99.90;;;;;;4989614;28;20456;-88
2020/12/11 08:23:23;;;;;;;19.83;11.30;;;0.00;99.90;;;;;;4994730;28;20980;-85
2020/12/11 08:26:23;;;;;;;16.77;10.77;;;0.00;99.90;;;;;;4994568;28;20461;-85
2020/12/11 08:28:52;;;;;;;19.17;11.13;;;0.10;99.90;;;;;;4994906;28;20438;-86
2020/12/11 08:31:24;;;;;;;19.27;12.77;;;2.90;99.90;;;;;;4993831;28;20521;-87
2020/12/11 08:33:59;;;;;;;22.73;13.33;;;0.70;99.90;;;;;;5001715;28;20880;-87
2020/12/11 08:36:27;;;;;;;24.17;14.37;;;0.90;99.90;;;;;;4999512;28;20447;-87
2020/12/11 08:39:13;;;;;;;20.10;11.80;;;1.10;99.90;;;;;;4994497;28;20454;-87
2020/12/11 08:41:52;;;;;;;16.60;10.20;;;1.40;99.90;;;;;;4994387;28;20452;-85
2020/12/11 08:47:13;;;;;;;15.80;9.30;;;1.40;99.90;;;;;;4995402;28;20452;-87
2020/12/11 08:49:41;;;;;;;8.10;5.47;;;1.30;99.90;;;;;;5007975;28;20578;-84
2020/12/11 08:52:08;;;;;;;16.97;12.17;;;0.80;99.90;;;;;;5012292;28;20570;-89
2020/12/11 08:54:37;;;;;;;9.13;5.40;;;0.80;99.90;;;;;;5012524;28;20465;-87
2020/12/11 08:57:03;;;;;;;9.27;6.63;;;0.70;99.90;;;;;;5013807;28;20450;-85
2020/12/11 08:59:30;;;;;;;29.60;16.17;;;0.80;99.90;;;;;;5013637;28;20450;-87
2020/12/11 09:01:59;;;;;;;16.47;10.00;;;1.00;99.90;;;;;;5013305;28;20798;-86
2020/12/11 09:04:25;;;;;;;7.60;5.00;;;1.90;99.90;;;;;;5012568;28;20950;-86
2020/12/11 09:06:52;;;;;;;8.17;4.77;;;1.90;99.90;;;;;;5012722;28;20448;-88
2020/12/11 09:09:18;;;;;;;13.73;8.63;;;1.80;99.90;;;;;;5013348;28;20462;-87
2020/12/11 09:11:44;;;;;;;15.43;9.10;;;1.60;99.90;;;;;;5013781;28;20446;-89
2020/12/11 09:14:10;;;;;;;10.73;6.23;;;1.40;99.90;;;;;;5014114;28;20450;-89
2020/12/11 09:16:38;;;;;;;14.00;8.43;;;1.40;99.90;;;;;;5013852;28;20446;-88
2020/12/11 09:19:04;;;;;;;6.30;2.70;;;1.20;99.90;;;;;;5012145;28;20454;-88
2020/12/11 09:21:30;;;;;;;14.63;9.90;;;1.50;99.90;;;;;;5012728;28;20444;-87
2020/12/11 09:23:57;;;;;;;14.30;8.33;;;1.60;99.90;;;;;;5014268;28;20832;-88
2020/12/11 09:26:25;;;;;;;11.23;7.53;;;1.80;99.90;;;;;;5016134;28;20462;-87
2020/12/11 09:29:01;;;;;;;12.40;7.70;;;1.70;99.90;;;;;;5018651;28;20533;-90
2020/12/11 09:31:27;;;;;;;11.23;8.50;;;1.60;99.90;;;;;;5013778;28;20490;-91
2020/12/11 09:33:56;;;;;;;10.57;6.57;;;1.40;99.90;;;;;;5012060;28;20468;-89
2020/12/11 09:36:24;;;;;;;13.70;8.83;;;1.60;99.90;;;;;;5013611;28;20819;-89
2020/12/11 09:38:50;;;;;;;11.40;8.07;;;2.10;99.90;;;;;;5018880;28;20456;-89
2020/12/11 09:41:20;;;;;;;7.87;4.63;;;2.20;99.90;;;;;;5016561;28;20856;-90
2020/12/11 09:44:05;;;;;;;12.93;8.53;;;1.90;99.90;;;;;;5012792;28;20824;-84
2020/12/11 09:46:39;;;;;;;13.00;9.93;;;1.80;99.90;;;;;;5013061;28;20429;-86
2020/12/11 09:49:09;;;;;;;12.90;8.83;;;1.60;99.90;;;;;;5012897;28;20503;-84
2020/12/11 09:52:04;;;;;;;6.23;3.17;;;1.60;99.90;;;;;;5011556;28;20865;-85
2020/12/11 09:54:33;;;;;;;17.27;11.50;;;1.50;99.90;;;;;;5012998;28;20509;-85
2020/12/11 09:56:59;;;;;;;15.07;8.80;;;1.50;99.90;;;;;;5012916;28;20456;-84
2020/12/11 09:59:29;;;;;;;12.10;8.47;;;1.30;99.90;;;;;;5012898;28;20444;-86
2020/12/11 10:02:08;;;;;;;9.27;6.03;;;1.60;99.90;;;;;;5012968;28;20507;-86
2020/12/11 10:04:36;;;;;;;14.83;9.70;;;1.70;99.90;;;;;;5012846;28;20463;-88
2020/12/11 10:07:03;;;;;;;10.87;7.30;;;;;;;;;;5011507;28;20538;-84
2020/12/11 10:09:29;;;;;;;15.40;10.97;;;1.80;99.90;;;;;;5012564;28;20447;-87
2020/12/11 10:11:56;;;;;;;13.13;9.67;;;1.80;99.90;;;;;;5012837;28;20443;-86
2020/12/11 10:14:28;;;;;;;10.17;5.83;;;2.10;99.90;;;;;;5012635;28;20511;-87
2020/12/11 10:16:55;;;;;;;8.90;4.77;;;1.90;99.90;;;;;;5007988;28;20441;-87
2020/12/11 10:19:28;;;;;;;17.97;12.63;;;2.20;99.90;;;;;;5007201;28;20433;-87
2020/12/11 10:21:56;;;;;;;14.83;9.27;;;2.10;99.90;;;;;;4994578;28;20444;-89
2020/12/11 10:24:23;;;;;;;14.20;9.80;;;2.10;99.90;;;;;;4993451;28;20442;-86
2020/12/11 10:26:51;;;;;;;16.43;12.20;;;;;;;;;;4994132;28;20457;-88
2020/12/11 10:29:17;;;;;;;14.10;9.40;;;2.30;99.90;;;;;;4993399;28;20449;-86
2020/12/11 10:31:44;;;;;;;19.20;11.37;;;2.20;99.90;;;;;;4999361;28;20503;-90
2020/12/11 10:34:11;;;;;;;14.03;10.10;;;2.20;99.90;;;;;;4997691;28;20503;-89
2020/12/11 10:36:37;;;;;;;17.50;11.97;;;2.30;99.90;;;;;;4998937;28;20458;-92
2020/12/11 10:39:05;;;;;;;15.27;9.13;;;2.40;99.90;;;;;;4995844;28;20453;-93
2020/12/11 10:41:32;;;;;;;15.17;11.13;;;;;;;;;;4999251;28;20451;-89
2020/12/11 10:43:59;;;;;;;15.30;10.30;;;;;;;;;;5006019;28;20476;-92
2020/12/11 10:46:25;;;;;;;18.17;9.93;;;2.30;99.90;;;;;;5002282;28;20449;-90
2020/12/11 10:48:52;;;;;;;17.30;11.20;;;2.30;99.90;;;;;;4999503;28;20453;-91
2020/12/11 10:51:19;;;;;;;15.13;9.60;;;2.30;99.90;;;;;;4996320;28;21015;-93
2020/12/11 10:53:46;;;;;;;17.73;10.13;;;2.20;99.90;;;;;;5003873;28;20461;-92
2020/12/11 10:56:15;;;;;;;14.17;10.90;;;2.30;99.90;;;;;;5009164;28;20464;-90
2020/12/11 10:58:42;;;;;;;15.17;10.33;;;2.60;99.90;;;;;;5002752;28;20460;-91
2020/12/11 11:01:09;;;;;;;17.30;10.67;;;2.60;99.90;;;;;;4998754;28;20440;-91
2020/12/11 11:03:36;;;;;;;16.10;9.30;;;;;;;;;;4996121;28;20519;-94
2020/12/11 11:06:08;;;;;;;12.17;8.10;;;;;;;;;;4997353;28;20448;-91
2020/12/11 11:08:39;;;;;;;14.13;9.53;;;;;;;;;;5010715;28;20469;-92
2020/12/11 11:11:05;;;;;;;14.30;9.60;;;;;;;;;;4997017;28;20604;-91
2020/12/11 11:13:39;;;;;;;12.13;8.27;;;2.60;99.90;;;;;;4996709;28;20456;-91
2020/12/11 11:16:06;;;;;;;15.53;10.73;;;;;;;;;;4998864;28;20421;-91
2020/12/11 11:18:42;;;;;;;15.43;9.67;;;2.80;99.90;;;;;;4998336;28;20448;-92
2020/12/11 11:21:28;;;;;;;19.03;13.30;;;;;;;;;;4998817;28;20495;-90
2020/12/11 11:29:28;;;;;;;15.37;10.40;;;2.70;99.90;;;;;;5001117;28;20451;-93
2020/12/11 11:31:55;;;;;;;11.97;9.10;;;;;;;;;;4998298;28;20498;-92
2020/12/11 11:34:21;;;;;;;15.83;10.27;;;;;;;;;;5000557;28;20458;-93
2020/12/11 11:36:49;;;;;;;13.77;9.20;;;2.90;99.90;;;;;;5003035;28;20462;-93
2020/12/11 11:39:16;;;;;;;13.90;10.50;;;;;;;;;;4999249;28;20437;-93
2020/12/11 11:41:46;;;;;;;13.40;9.10;;;;;;;;;;5009759;28;20454;-93
2020/12/11 11:47:09;;;;;;;15.07;9.63;;;2.90;99.90;;;;;;5015188;23;20487;-93
2020/12/11 11:49:40;;;;;;;14.60;9.97;;;3.80;99.90;;;;;;5021935;28;20920;-93
2020/12/11 11:52:16;;;;;;;17.13;9.87;;;;;;;;;;5020340;28;20484;-92
2020/12/11 11:54:42;;;;;;;14.40;10.37;;;;;;;;;;5016276;28;20464;-90
2020/12/11 11:57:09;;;;;;;14.10;9.93;;;;;;;;;;5015430;28;20510;-89
2020/12/11 11:59:35;;;;;;;11.77;7.63;;;;;;;;;;5015801;28;20452;-89
2020/12/11 12:02:02;;;;;;;15.03;11.33;;;;;;;;;;5015987;28;20445;-90
2020/12/11 12:04:30;;;;;;;13.37;9.30;;;3.00;99.90;;;;;;5014403;28;20445;-93
2020/12/11 12:06:56;;;;;;;9.30;5.60;;;2.80;99.90;;;;;;5014447;28;20455;-88
2020/12/11 12:09:23;;;;;;;11.47;8.80;;;2.80;99.90;;;;;;5015156;28;20454;-90
2020/12/11 12:11:49;;;;;;;8.50;6.00;;;2.80;99.90;;;;;;5014607;28;20496;-87
2020/12/11 12:14:15;;;;;;;16.67;12.00;;;2.40;99.90;;;;;;5014697;28;20452;-89
2020/12/11 12:16:43;;;;;;;9.67;6.30;;;;;;;;;;5015489;28;20471;-90
2020/12/11 12:19:13;;;;;;;22.40;13.27;;;;;;;;;;5014812;28;20450;-92
2020/12/11 12:22:06;;;;;;;14.17;8.53;;;2.20;99.90;;;;;;5013746;28;20445;-88
2020/12/11 12:27:45;;;;;;;19.00;12.77;;;2.50;99.90;;;;;;5020084;28;20439;-89
2020/12/11 12:30:11;;;;;;;18.07;11.40;;;;;;;;;;5014232;28;20486;-93
2020/12/11 12:32:50;;;;;;;15.60;10.00;;;;;;;;;;5014977;28;20471;-91
2020/12/11 12:35:29;;;;;;;10.47;7.57;;;;;;;;;;5017538;28;20459;-90
2020/12/11 12:37:58;;;;;;;14.07;8.83;;;;;;;;;;4998619;28;20529;-95
2020/12/11 12:40:48;;;;;;;12.70;8.50;;;;;;;;;;5001784;28;20532;-91
2020/12/11 12:43:19;;;;;;;14.80;9.17;;;;;;;;;;4997249;28;20487;-94
2020/12/11 12:45:46;;;;;;;8.30;4.83;;;;;;;;;;4997316;28;20474;-93
2020/12/11 12:48:15;;;;;;;12.40;8.30;;;;;;;;;;5006302;28;20468;-95
2020/12/11 12:50:42;;;;;;;13.53;7.57;;;;;;;;;;5016153;28;20507;-92
2020/12/11 12:59:00;;;;;;;16.50;9.87;;;;;;;;;;5017076;28;20497;-93
2020/12/11 13:06:47;;;;;;;29.73;15.50;;;2.80;99.90;;;;;;4997994;28;20805;-93
2020/12/11 13:09:16;;;;;;;15.27;9.53;;;;;;;;;;4994032;28;20465;-91
2020/12/11 13:11:43;;;;;;;21.80;13.93;;;;;;;;;;4997571;28;20493;-93
2020/12/11 13:14:10;;;;;;;14.67;10.20;;;;;;;;;;4996880;28;20457;-89
2020/12/11 13:16:36;;;;;;;18.27;11.03;;;;;;;;;;4999290;28;20453;-93
2020/12/11 13:19:05;;;;;;;13.60;9.60;;;;;;;;;;4997234;28;20520;-91
2020/12/11 13:21:36;;;;;;;16.47;10.60;;;;;;;;;;4996313;28;20452;-92
2020/12/11 13:26:50;;;;;;;11.00;7.73;;;;;;;;;;5010976;23;20519;-94
2020/12/11 13:29:17;;;;;;;15.57;10.10;;;;;;;;;;4997075;28;20460;-91
2020/12/11 13:31:43;;;;;;;14.20;8.90;;;2.30;99.90;;;;;;4993607;28;20492;-92
2020/12/11 13:34:10;;;;;;;19.33;11.97;;;;;;;;;;4993321;28;20457;-91
2020/12/11 13:36:37;;;;;;;11.60;8.60;;;;;;;;;;4994541;28;20469;-91